Maribel — LAGU6 — position and weather

sailwx.info

Track history (hours):
 
Tides and Currents Weather Stations Pressure Air Temp Water Temp Dewpoint Dewpoint Depression Visibility Wind Speed Wind Dir Waves Ship Positions

Maribel

Last reported at 2018-Feb-18 11:22 UTC. Time now 2018-Feb-20 12:07 UTC.
Position N 28°50' W 015°08'.

Length 229 m; draft 8.5 m.

Type: Ship. MMSI: 257872000.

Date/timePositionNaut miles runAvg speedWind from/ knotsBaromVisibWave heightAir tempDewpointWater temp
2018-Feb-18 11:22N 28°50' W 015°08'514.3
2018-Feb-18 11:00N 28°45' W 015°10'714.2
2018-Feb-18 10:30N 28°38' W 015°12'714.1
2018-Feb-18 10:00N 28°31' W 015°14'713.9
2018-Feb-18 09:30N 28°24' W 015°16'713.9
2018-Feb-18 09:00N 28°18' W 015°18'713.8
2018-Feb-18 08:30N 28°11' W 015°21'4 7.9
2018-Feb-18 08:00N 28°07' W 015°22'3 6.5
2018-Feb-18 07:31N 28°07' W 015°18'713.8
2018-Feb-18 07:01N 28°08' W 015°10'714.1
2018-Feb-18 06:31N 28°09' W 015°03'713.9
2018-Feb-18 06:00N 28°10' W 014°55'612.0
2018-Feb-18 05:30N 28°04' W 014°56'612.6
2018-Feb-18 04:59N 27°58' W 014°59'612.3
2018-Feb-18 04:30N 27°52' W 015°01'612.6
2018-Feb-18 04:00N 27°46' W 015°04'712.6
2018-Feb-18 03:29N 27°40' W 015°06'612.8
2018-Feb-18 03:00N 27°35' W 015°09'  
Track history (hours):
 
Tides and Currents Weather Stations Pressure Air Temp Water Temp Dewpoint Dewpoint Depression Visibility Wind Speed Wind Dir Waves Ship Positions

Maribel

Last reported at 2018-Feb-18 11:22 UTC. Time now 2018-Feb-20 12:07 UTC.
Position N 28°50' W 015°08'.

Length 229 m; draft 8.5 m.

Type: Ship. MMSI: 257872000.

Date/timePositionNaut miles runAvg speedWind from/ knotsBaromVisibWave heightAir tempDewpointWater temp
2018-Feb-18 11:22N 28°50' W 015°08'514.3
2018-Feb-18 11:00N 28°45' W 015°10'714.2
2018-Feb-18 10:30N 28°38' W 015°12'714.1
2018-Feb-18 10:00N 28°31' W 015°14'713.9
2018-Feb-18 09:30N 28°24' W 015°16'713.9
2018-Feb-18 09:00N 28°18' W 015°18'713.8
2018-Feb-18 08:30N 28°11' W 015°21'4 7.9
2018-Feb-18 08:00N 28°07' W 015°22'3 6.5
2018-Feb-18 07:31N 28°07' W 015°18'713.8
2018-Feb-18 07:01N 28°08' W 015°10'714.1
2018-Feb-18 06:31N 28°09' W 015°03'713.9
2018-Feb-18 06:00N 28°10' W 014°55'612.0
2018-Feb-18 05:30N 28°04' W 014°56'612.6
2018-Feb-18 04:59N 27°58' W 014°59'612.3
2018-Feb-18 04:30N 27°52' W 015°01'612.6
2018-Feb-18 04:00N 27°46' W 015°04'712.6
2018-Feb-18 03:29N 27°40' W 015°06'612.8
2018-Feb-18 03:00N 27°35' W 015°09'  

Dump ship's entire track history